Time;durP1;ratioP1;P1;durP2;ratioP2;P2;SDS_P1;SDS_P2;PMS_P1;PMS_P2;Temp;Humidity;BMP_temperature;BMP_pressure;BME280_temperature;BME280_humidity;BME280_pressure;Samples;Min_cycle;Max_cycle;Signal;HPM_P1;HPM_P2
2023/07/16 00:00:49;;;;;;;7.05;2.65;;;;;;;-146.27;63.28;81725.34;5073801;28;20028;-72
2023/07/16 00:03:15;;;;;;;7.57;2.85;;;;;;;-146.27;63.54;81713.31;5073703;28;20033;-71
2023/07/16 00:05:40;;;;;;;7.25;2.45;;;;;;;-146.27;63.13;81749.47;5073582;28;20054;-71
2023/07/16 00:08:05;;;;;;;9.05;2.67;;;;;;;-146.27;62.95;81737.41;5073286;28;20036;-71
2023/07/16 00:10:35;;;;;;;12.23;3.50;;;;;;;-146.27;63.43;81797.66;5072245;28;20074;-71
2023/07/16 00:13:00;;;;;;;7.80;2.97;;;;;;;-146.27;62.73;81769.53;5072962;28;20502;-72
2023/07/16 00:15:26;;;;;;;10.38;2.83;;;;;;;-146.27;62.71;81749.47;5073064;28;20028;-72
2023/07/16 00:17:51;;;;;;;11.55;3.28;;;;;;;-146.27;62.45;81773.56;5073482;28;20111;-71
2023/07/16 00:20:17;;;;;;;8.88;3.03;;;;;;;-146.27;62.81;81799.66;5073299;28;20028;-71
2023/07/16 00:22:42;;;;;;;6.28;2.75;;;;;;;-146.27;62.74;81733.38;5073125;28;20029;-72
2023/07/16 00:25:08;;;;;;;9.38;2.83;;;;;;;-146.27;62.74;81717.31;5073376;28;20384;-71
2023/07/16 00:27:33;;;;;;;9.93;2.70;;;;;;;-146.27;62.64;81757.50;5073309;28;20444;-71
2023/07/16 00:29:59;;;;;;;9.10;2.90;;;;;;;-146.27;63.09;81767.53;5073149;28;20035;-72
2023/07/16 00:32:24;;;;;;;10.35;3.47;;;;;;;-146.27;62.49;81741.41;5073272;28;20058;-72
2023/07/16 00:34:49;;;;;;;11.45;3.10;;;;;;;-146.27;62.71;81761.50;5072952;28;20498;-71
2023/07/16 00:37:15;;;;;;;15.07;3.53;;;;;;;-146.27;63.09;81785.59;5073316;28;20031;-71
2023/07/16 00:39:40;;;;;;;14.73;4.00;;;;;;;-146.27;63.09;81785.59;5073585;28;20459;-72
2023/07/16 00:42:05;;;;;;;9.75;3.10;;;;;;;-146.27;62.97;81747.44;5073179;28;20071;-71
2023/07/16 00:44:31;;;;;;;9.38;3.05;;;;;;;-146.27;63.91;81841.84;5071714;28;20376;-70
2023/07/16 00:46:56;;;;;;;14.60;3.80;;;;;;;-146.27;63.21;81761.50;5072898;28;20480;-71
2023/07/16 00:49:23;;;;;;;13.20;3.42;;;;;;;-146.27;63.54;81775.56;5072952;28;20025;-71
2023/07/16 00:51:51;;;;;;;10.13;3.42;;;;;;;-146.27;63.35;81763.50;5073070;28;20024;-71
2023/07/16 00:54:17;;;;;;;10.00;3.40;;;;;;;-146.27;63.57;81767.53;5072719;28;20025;-71
2023/07/16 00:56:43;;;;;;;13.40;3.50;;;;;;;-146.27;64.12;81777.56;5072574;28;20024;-71
2023/07/16 00:59:08;;;;;;;11.93;3.53;;;;;;;-146.27;63.87;81749.47;5073006;28;20099;-72
2023/07/16 01:01:34;;;;;;;10.98;3.35;;;;;;;-146.27;64.07;81789.63;5072690;28;20032;-71
2023/07/16 01:03:59;;;;;;;17.65;4.63;;;;;;;-146.27;64.31;81785.59;5072521;28;20024;-71
2023/07/16 01:06:30;;;;;;;10.32;3.97;;;;;;;-146.27;64.19;81789.63;5072601;28;20030;-71
2023/07/16 01:09:23;;;;;;;10.82;3.70;;;;;;;-146.27;64.43;81749.47;5072378;28;20052;-71
2023/07/16 01:11:49;;;;;;;12.18;3.63;;;;;;;-146.27;64.76;81759.50;5072150;28;20051;-71
2023/07/16 01:14:17;;;;;;;16.63;4.45;;;;;;;-146.27;65.22;81797.66;5056052;28;20099;-71
2023/07/16 01:16:44;;;;;;;14.23;3.95;;;;;;;-146.27;65.51;81799.66;5072087;28;20051;-71
2023/07/16 01:19:09;;;;;;;14.63;3.67;;;;;;;-146.27;66.20;81827.78;5071995;28;20028;-70
2023/07/16 01:22:07;;;;;;;11.75;3.90;;;;;;;-146.27;65.78;81769.53;5072173;28;20059;-71
2023/07/16 01:25:07;;;;;;;14.68;4.03;;;;;;;-146.27;66.24;81793.66;5067342;28;20044;-71
2023/07/16 01:28:05;;;;;;;12.43;3.67;;;;;;;-146.27;66.56;81805.69;5072219;28;20055;-72
2023/07/16 01:30:31;;;;;;;14.43;3.80;;;;;;;-146.27;66.54;81785.59;5072268;28;20510;-71
2023/07/16 01:32:57;;;;;;;11.77;4.18;;;;;;;-146.27;67.34;81869.97;5072278;28;20106;-71
2023/07/16 01:35:23;;;;;;;13.50;4.22;;;;;;;-146.27;67.49;81849.88;5071921;28;20031;-72
2023/07/16 01:37:49;;;;;;;11.50;3.83;;;;;;;-146.27;66.95;81811.72;5071833;28;20032;-72
2023/07/16 01:40:14;;;;;;;11.20;4.03;;;;;;;-146.27;67.01;81853.91;5071958;28;20029;-72
2023/07/16 01:42:40;;;;;;;12.48;4.15;;;;;;;-146.27;66.98;81857.91;5071877;28;20036;-71
2023/07/16 01:45:06;;;;;;;12.48;4.32;;;;;;;-146.27;66.92;81849.88;5071045;28;20024;-71
2023/07/16 01:47:45;;;;;;;15.60;4.97;;;;;;;-146.27;66.75;81813.72;5069182;28;20032;-71
2023/07/16 01:50:10;;;;;;;14.65;5.43;;;;;;;-146.27;66.82;81841.84;5071148;28;20027;-72
2023/07/16 01:52:35;;;;;;;10.40;4.00;;;;;;;-146.27;67.14;81894.06;5071569;28;20033;-70
2023/07/16 01:55:01;;;;;;;13.48;4.57;;;;;;;-146.27;66.50;81853.91;5071652;28;20027;-71
2023/07/16 01:57:26;;;;;;;13.25;5.60;;;;;;;-146.27;66.42;81863.94;5071556;28;20024;-71
2023/07/16 01:59:51;;;;;;;14.63;5.45;;;;;;;-146.27;65.79;81781.59;5071393;28;20426;-70
2023/07/16 02:02:17;;;;;;;12.13;4.63;;;;;;;-146.27;66.00;81805.69;5071636;28;20078;-71
2023/07/16 02:04:42;;;;;;;16.98;5.18;;;;;;;-146.27;65.98;81817.75;5071254;28;20556;-71
2023/07/16 02:07:08;;;;;;;11.10;4.00;;;;;;;-146.27;65.89;81791.63;5071607;28;20499;-72
2023/07/16 02:09:35;;;;;;;9.70;4.40;;;;;;;-146.27;66.33;81809.72;5071806;28;20028;-71
2023/07/16 02:12:00;;;;;;;10.98;4.60;;;;;;;-146.27;66.17;81797.66;5069716;28;20048;-71
2023/07/16 02:14:26;;;;;;;14.90;4.68;;;;;;;-146.27;66.48;81833.81;5069233;28;20029;-72
2023/07/16 02:16:51;;;;;;;12.90;4.55;;;;;;;-146.27;66.68;81851.88;5071030;28;20040;-71
2023/07/16 02:19:16;;;;;;;13.13;4.95;;;;;;;-146.27;66.41;81823.78;5070409;28;20666;-71
2023/07/16 02:21:42;;;;;;;12.95;4.80;;;;;;;-146.27;66.31;81779.59;5071221;28;20024;-71
2023/07/16 02:24:07;;;;;;;14.75;5.22;;;;;;;-146.27;66.61;81845.88;5070506;28;20089;-70
2023/07/16 02:26:32;;;;;;;13.77;4.80;;;;;;;-146.27;66.98;81833.81;5071058;28;20058;-70
2023/07/16 02:28:59;;;;;;;17.33;5.20;;;;;;;-146.27;67.50;81865.94;5071240;28;20019;-70
2023/07/16 02:31:24;;;;;;;12.70;4.82;;;;;;;-146.27;67.75;81863.94;5070979;28;20113;-71
2023/07/16 02:33:50;;;;;;;14.27;6.07;;;;;;;-146.27;67.66;81829.78;5069589;28;20028;-72
2023/07/16 02:36:15;;;;;;;16.63;5.05;;;;;;;-146.27;67.92;81849.88;5071071;28;20028;-71
2023/07/16 02:38:40;;;;;;;15.18;5.43;;;;;;;-146.27;68.17;81878.00;5071043;28;20040;-72
2023/07/16 02:41:06;;;;;;;12.48;5.40;;;;;;;-146.27;68.66;81849.88;5070589;28;20454;-72
2023/07/16 02:43:31;;;;;;;12.63;6.15;;;;;;;-146.27;67.95;81781.59;5070401;28;20056;-72
2023/07/16 02:45:56;;;;;;;14.05;5.53;;;;;;;-146.27;68.11;81821.75;5070830;28;20043;-70
2023/07/16 02:48:22;;;;;;;19.73;5.72;;;;;;;-146.27;68.47;81855.91;5070457;28;20029;-70
2023/07/16 02:50:47;;;;;;;17.20;5.47;;;;;;;-146.27;68.78;81857.91;5068986;28;20138;-71
2023/07/16 02:53:13;;;;;;;18.85;6.03;;;;;;;-146.27;68.28;81829.78;5070323;28;20032;-71
2023/07/16 02:55:38;;;;;;;12.75;5.07;;;;;;;-146.27;68.50;81849.88;5070401;28;20021;-72
2023/07/16 02:58:04;;;;;;;13.55;5.32;;;;;;;-146.27;68.85;81857.91;5070450;28;20025;-72
2023/07/16 03:00:33;;;;;;;9.10;5.32;;;;;;;-146.27;68.55;81839.84;5070192;28;20078;-71
2023/07/16 03:03:00;;;;;;;12.38;4.57;;;;;;;-146.27;68.95;81849.88;5069107;28;20043;-71
2023/07/16 03:05:26;;;;;;;12.55;4.65;;;;;;;-146.27;68.58;81841.84;5070091;28;20032;-72
2023/07/16 03:07:52;;;;;;;13.90;4.53;;;;;;;-146.27;68.75;81841.84;5070143;28;20465;-72
2023/07/16 03:10:17;;;;;;;9.75;4.25;;;;;;;-146.27;68.66;81829.78;5070351;28;20028;-70
2023/07/16 03:12:43;;;;;;;10.80;4.15;;;;;;;-146.27;68.78;81849.88;5070275;28;20052;-71
2023/07/16 03:15:09;;;;;;;12.10;4.20;;;;;;;-146.27;69.14;81894.06;5068589;28;20448;-70
2023/07/16 03:17:34;;;;;;;14.15;5.53;;;;;;;-146.27;69.34;81886.03;5070435;28;20031;-70
2023/07/16 03:19:59;;;;;;;10.10;4.18;;;;;;;-146.27;69.43;81910.13;5069877;28;20476;-70
2023/07/16 03:22:25;;;;;;;13.35;4.05;;;;;;;-146.27;70.15;81928.22;5070020;28;20016;-71
2023/07/16 03:24:50;;;;;;;11.73;3.92;;;;;;;-146.27;69.75;81845.88;5070000;28;20533;-69
2023/07/16 03:27:16;;;;;;;14.40;3.95;;;;;;;-146.27;70.63;81940.25;5068633;28;20029;-70
2023/07/16 03:29:41;;;;;;;12.23;4.00;;;;;;;-146.27;71.20;81944.28;5069466;28;20028;-71
2023/07/16 03:32:07;;;;;;;9.40;3.83;;;;;;;-146.27;71.67;81982.44;5069735;28;20495;-71
2023/07/16 03:34:32;;;;;;;7.65;3.53;;;;;;;-146.27;71.77;81970.41;5069986;28;20053;-70
2023/07/16 03:36:58;;;;;;;10.93;4.30;;;;;;;-146.27;71.53;81916.16;5068504;28;20024;-70
2023/07/16 03:39:23;;;;;;;13.23;4.32;;;;;;;-146.27;71.08;81910.13;5069864;28;20466;-70
2023/07/16 03:41:48;;;;;;;13.73;4.30;;;;;;;-146.27;71.24;81928.22;5069777;28;20029;-70
2023/07/16 03:44:14;;;;;;;14.05;4.10;;;;;;;-146.27;72.04;81970.41;5068208;28;20059;-70
2023/07/16 03:46:39;;;;;;;12.57;4.10;;;;;;;-146.27;72.20;82076.84;5069713;28;20476;-70
2023/07/16 03:49:07;;;;;;;10.70;4.45;;;;;;;-146.27;72.76;81986.47;5069614;28;20422;-70
2023/07/16 03:51:32;;;;;;;12.25;4.45;;;;;;;-146.27;72.70;81974.41;5068463;28;20377;-70
2023/07/16 03:53:58;;;;;;;9.23;4.80;;;;;;;-146.27;72.85;81994.50;5069553;28;20028;-71
2023/07/16 03:56:23;;;;;;;17.40;4.90;;;;;;;-146.27;73.09;81946.28;5069865;28;20340;-72
2023/07/16 03:58:48;;;;;;;20.15;5.10;;;;;;;-146.27;73.37;81950.31;5070079;28;20153;-71
2023/07/16 04:01:14;;;;;;;14.63;4.15;;;;;;;-146.27;74.00;82010.56;5069516;28;20028;-71
2023/07/16 04:03:39;;;;;;;15.07;4.95;;;;;;;-146.27;74.40;81992.50;5069511;28;20480;-71
2023/07/16 04:06:06;;;;;;;11.57;4.72;;;;;;;-146.27;73.84;81998.50;5069511;28;20111;-72
2023/07/16 04:08:31;;;;;;;11.43;4.57;;;;;;;-146.27;73.78;82018.59;5068199;28;20155;-70
2023/07/16 04:10:58;;;;;;;13.82;4.93;;;;;;;-146.27;73.61;81966.38;5069598;28;20111;-71
2023/07/16 04:13:23;;;;;;;15.55;5.13;;;;;;;-146.27;73.59;82004.53;5069578;28;20034;-71
2023/07/16 04:15:49;;;;;;;22.95;5.13;;;;;;;-146.27;73.48;82034.66;5069169;28;20103;-71
2023/07/16 04:18:14;;;;;;;15.40;4.88;;;;;;;-146.27;73.59;82014.59;5069660;28;20024;-71
2023/07/16 04:20:39;;;;;;;15.45;5.38;;;;;;;-146.27;73.04;81984.47;5069707;28;20475;-71
2023/07/16 04:23:05;;;;;;;16.23;4.68;;;;;;;-146.27;72.70;81962.34;5068764;28;20025;-70
2023/07/16 04:25:30;;;;;;;14.05;4.97;;;;;;;-146.27;72.35;81958.34;5069023;28;20032;-72
2023/07/16 04:27:56;;;;;;;19.05;4.88;;;;;;;-146.27;72.25;81946.28;5069337;28;20075;-72
2023/07/16 04:30:21;;;;;;;13.30;4.97;;;;;;;-146.27;72.52;81964.38;5069030;28;20480;-71
2023/07/16 04:32:47;;;;;;;11.55;4.57;;;;;;;-146.27;71.72;81934.25;5069269;28;20351;-72
2023/07/16 04:35:12;;;;;;;15.20;4.85;;;;;;;-146.27;71.93;81948.31;5069792;28;20020;-71
2023/07/16 04:37:38;;;;;;;16.17;5.00;;;;;;;-146.27;71.83;81934.25;5069348;28;20051;-71
2023/07/16 04:40:04;;;;;;;14.32;5.30;;;;;;;-146.27;72.05;81932.22;5068939;28;20028;-71
2023/07/16 04:42:30;;;;;;;13.50;4.72;;;;;;;-146.27;71.77;81930.22;5071524;28;20032;-71
2023/07/16 04:44:55;;;;;;;8.55;4.65;;;;;;;-146.27;71.75;81940.25;5073445;28;20523;-72
2023/07/16 04:47:20;;;;;;;14.48;5.35;;;;;;;-146.27;71.48;81873.97;5072836;28;20033;-72
2023/07/16 04:49:46;;;;;;;13.30;4.60;;;;;;;-146.27;71.14;81952.31;5072633;28;20038;-71
2023/07/16 04:52:11;;;;;;;14.77;5.30;;;;;;;-146.27;70.84;81974.41;5071362;28;20564;-72
2023/07/16 04:54:37;;;;;;;11.23;5.13;;;;;;;-146.27;70.42;81942.28;5073162;28;20013;-70
2023/07/16 04:57:05;;;;;;;11.02;4.57;;;;;;;-146.27;69.55;81962.34;5072694;28;20021;-70
2023/07/16 04:59:30;;;;;;;11.82;4.65;;;;;;;-146.27;68.73;81950.31;5072952;28;20067;-73
2023/07/16 05:01:55;;;;;;;13.18;4.50;;;;;;;-146.27;68.73;81928.22;5072526;28;20060;-71
2023/07/16 05:04:21;;;;;;;15.02;4.88;;;;;;;-146.27;68.27;81954.31;5072448;28;20032;-70
2023/07/16 05:06:46;;;;;;;11.75;4.80;;;;;;;-146.27;67.75;81920.19;5072713;28;20024;-72
2023/07/16 05:09:12;;;;;;;11.57;4.88;;;;;;;-146.27;67.36;81918.16;5072098;28;20415;-72
2023/07/16 05:11:38;;;;;;;6.65;4.43;;;;;;;-146.27;66.92;81902.09;5072627;28;20119;-70
2023/07/16 05:14:03;;;;;;;9.65;3.88;;;;;;;-146.27;66.68;81918.16;5072337;28;20052;-71
2023/07/16 05:16:29;;;;;;;11.82;4.72;;;;;;;-146.27;65.90;81861.94;5072548;28;20036;-71
2023/07/16 05:18:54;;;;;;;9.98;4.03;;;;;;;-146.27;65.70;81845.88;5072061;28;20615;-72
2023/07/16 05:21:20;;;;;;;9.68;4.35;;;;;;;-146.27;65.80;81829.78;5072161;28;20032;-72
2023/07/16 05:23:45;;;;;;;16.65;5.60;;;;;;;-146.27;66.12;81837.81;5072106;28;20122;-72
2023/07/16 05:26:10;;;;;;;16.63;4.78;;;;;;;-146.27;66.27;81851.88;5072334;28;20032;-71
2023/07/16 05:28:36;;;;;;;16.83;4.53;;;;;;;-146.27;66.31;81849.88;5072445;28;20032;-71
2023/07/16 05:31:02;;;;;;;12.45;5.18;;;;;;;-146.27;66.60;81861.94;5070770;28;20031;-72
2023/07/16 05:33:28;;;;;;;13.07;4.55;;;;;;;-146.27;67.22;81869.97;5071859;28;20028;-71
2023/07/16 05:35:54;;;;;;;12.52;4.50;;;;;;;-146.27;67.39;81853.91;5071889;28;20092;-71
2023/07/16 05:38:19;;;;;;;13.25;4.57;;;;;;;-146.27;67.88;81825.78;5071724;28;20472;-70
2023/07/16 05:40:45;;;;;;;16.90;4.80;;;;;;;-146.27;68.09;81859.94;5072243;28;20036;-71
2023/07/16 05:43:10;;;;;;;17.05;4.10;;;;;;;-146.27;67.88;81791.63;5071785;28;20021;-70
2023/07/16 05:45:36;;;;;;;10.40;4.75;;;;;;;-146.27;67.66;81805.69;5071953;28;20063;-70
2023/07/16 05:48:03;;;;;;;11.23;3.95;;;;;;;-146.27;68.08;81821.75;5071865;28;20025;-70
2023/07/16 05:50:28;;;;;;;13.63;5.63;;;;;;;-146.27;69.05;81902.09;5071271;28;20040;-70
2023/07/16 05:52:54;;;;;;;14.27;4.32;;;;;;;-146.27;68.11;81845.88;5070579;28;20085;-72
2023/07/16 05:55:19;;;;;;;9.30;4.07;;;;;;;-146.27;68.58;81837.81;5071544;28;20020;-71
2023/07/16 05:57:45;;;;;;;18.05;4.65;;;;;;;-146.27;68.37;81815.72;5070260;28;20458;-70
2023/07/16 06:00:11;;;;;;;13.52;4.70;;;;;;;-146.27;68.63;81890.06;5071621;28;20340;-71
2023/07/16 06:02:36;;;;;;;11.38;4.78;;;;;;;-146.27;68.60;81880.00;5071521;28;20383;-70
2023/07/16 06:05:01;;;;;;;14.60;4.78;;;;;;;-146.27;68.83;81851.88;5070837;28;20025;-71
2023/07/16 06:07:27;;;;;;;13.27;4.95;;;;;;;-146.27;68.34;81801.69;5071034;28;20503;-70
2023/07/16 06:09:52;;;;;;;10.52;4.55;;;;;;;-146.27;67.17;81857.91;5070952;28;20499;-71
2023/07/16 06:12:18;;;;;;;11.65;4.75;;;;;;;-146.27;66.82;81857.91;5071146;28;20372;-70
2023/07/16 06:14:43;;;;;;;12.15;4.63;;;;;;;-146.27;66.09;81827.78;5071400;28;20033;-72
2023/07/16 06:17:08;;;;;;;9.63;5.20;;;;;;;-146.27;66.00;81918.16;5071430;28;20028;-72
2023/07/16 06:19:34;;;;;;;9.00;4.90;;;;;;;-146.27;65.49;81797.66;5070866;28;20031;-71
2023/07/16 06:21:59;;;;;;;14.40;5.72;;;;;;;-146.27;65.57;81805.69;5070919;28;20473;-70
2023/07/16 06:24:25;;;;;;;10.00;5.20;;;;;;;-146.27;65.96;81799.66;5071139;28;20060;-71
2023/07/16 06:26:50;;;;;;;11.30;5.05;;;;;;;-146.27;66.04;81813.72;5070881;28;20032;-71
2023/07/16 06:29:15;;;;;;;9.93;5.10;;;;;;;-146.27;65.80;81787.63;5070963;28;20037;-71
2023/07/16 06:31:43;;;;;;;11.43;4.53;;;;;;;-146.27;66.50;81793.66;5070871;28;20029;-71
2023/07/16 06:34:08;;;;;;;12.98;5.13;;;;;;;-146.27;67.13;81809.72;5071375;28;20026;-71
2023/07/16 06:36:34;;;;;;;11.85;4.18;;;;;;;-146.27;67.54;81809.72;5070363;28;20028;-70
2023/07/16 06:39:00;;;;;;;13.70;4.95;;;;;;;-146.27;67.84;81813.72;5071027;28;20024;-71
2023/07/16 06:41:25;;;;;;;13.70;5.30;;;;;;;-146.27;68.11;81785.59;5071058;28;20028;-71
2023/07/16 06:43:51;;;;;;;9.20;4.50;;;;;;;-146.27;68.13;81779.59;5070658;28;20020;-72
2023/07/16 06:46:16;;;;;;;18.88;5.18;;;;;;;-146.27;68.05;81651.03;5070623;28;20464;-72
2023/07/16 06:48:42;;;;;;;11.02;4.72;;;;;;;-146.27;67.83;81667.09;5070534;28;20029;-71
2023/07/16 06:51:07;;;;;;;13.25;4.93;;;;;;;-146.27;67.89;81665.09;5070530;28;20418;-71
2023/07/16 06:53:33;;;;;;;12.85;5.13;;;;;;;-146.27;68.85;81753.47;5070537;28;20021;-71
2023/07/16 06:55:58;;;;;;;9.55;4.40;;;;;;;-146.27;68.16;81717.31;5069075;28;20255;-72
2023/07/16 06:58:31;;;;;;;14.80;4.97;;;;;;;-146.27;67.86;81693.22;5070568;28;20024;-71
2023/07/16 07:00:57;;;;;;;14.63;4.43;;;;;;;-146.27;68.32;81721.34;5070038;28;20111;-70
2023/07/16 07:03:22;;;;;;;13.35;4.72;;;;;;;-146.27;68.05;81733.38;5069793;28;20108;-71
2023/07/16 07:05:47;;;;;;;16.77;4.85;;;;;;;-146.27;68.53;81755.47;5069975;28;20078;-71
2023/07/16 07:08:13;;;;;;;14.52;5.05;;;;;;;-146.27;68.01;81733.38;5070289;28;20513;-71
2023/07/16 07:10:39;;;;;;;11.35;4.60;;;;;;;-146.27;68.13;81729.38;5069904;28;20026;-72
2023/07/16 07:13:05;;;;;;;16.80;5.35;;;;;;;-146.27;68.83;81765.53;5070287;28;20202;-70
2023/07/16 07:15:30;;;;;;;13.27;5.53;;;;;;;-146.27;68.22;81749.47;5070099;28;20020;-71
2023/07/16 07:17:55;;;;;;;12.10;5.35;;;;;;;-146.27;68.26;81721.34;5070072;28;20098;-71
2023/07/16 07:20:21;;;;;;;13.88;4.72;;;;;;;-146.27;67.41;81713.31;5069971;28;20017;-72
2023/07/16 07:22:46;;;;;;;15.88;5.20;;;;;;;-146.27;67.36;81697.22;5070339;28;20032;-70
2023/07/16 07:25:11;;;;;;;13.15;4.90;;;;;;;-146.27;67.31;81673.13;5070075;28;20442;-71
2023/07/16 07:27:37;;;;;;;13.93;5.47;;;;;;;-146.27;67.10;81715.31;5069949;28;20395;-70
2023/07/16 07:30:03;;;;;;;14.98;5.28;;;;;;;-146.27;67.20;81701.25;5068794;28;20024;-71
2023/07/16 07:32:29;;;;;;;12.55;5.68;;;;;;;-146.27;66.87;81657.06;5069982;28;20085;-71
2023/07/16 07:34:54;;;;;;;11.68;4.93;;;;;;;-146.27;66.73;81671.13;5069829;28;20029;-70
2023/07/16 07:37:19;;;;;;;15.65;5.80;;;;;;;-146.27;67.02;81709.28;5069760;28;20028;-70
2023/07/16 07:39:49;;;;;;;9.13;4.93;;;;;;;-146.27;66.83;81653.06;5069357;28;20021;-71
2023/07/16 07:42:15;;;;;;;9.68;5.15;;;;;;;-146.27;66.85;81677.16;5069163;28;20017;-72
2023/07/16 07:44:41;;;;;;;12.15;4.95;;;;;;;-146.27;67.42;81697.22;5068683;28;20380;-71
2023/07/16 07:47:08;;;;;;;13.50;5.20;;;;;;;-146.27;67.42;81693.22;5069425;28;20400;-72
2023/07/16 07:49:34;;;;;;;11.48;4.43;;;;;;;-146.27;67.22;81622.91;5069387;28;20078;-71
2023/07/16 07:51:59;;;;;;;10.95;4.75;;;;;;;-146.27;66.99;81645.00;5069776;28;20358;-71
2023/07/16 07:54:25;;;;;;;14.30;5.28;;;;;;;-146.27;67.67;81632.97;5070010;28;20032;-70
2023/07/16 07:56:50;;;;;;;9.63;4.95;;;;;;;-146.27;66.95;81598.81;5069727;28;20020;-71
2023/07/16 07:59:16;;;;;;;10.73;4.70;;;;;;;-146.27;66.88;81598.81;5069823;28;20024;-71
2023/07/16 08:01:41;;;;;;;12.18;4.50;;;;;;;-146.27;66.64;81532.53;5069670;28;20103;-71
2023/07/16 08:04:06;;;;;;;13.45;5.40;;;;;;;-146.27;67.05;81592.78;5069939;28;20495;-71
2023/07/16 08:06:32;;;;;;;13.70;5.38;;;;;;;-146.27;66.70;81528.53;5068633;28;20388;-71
2023/07/16 08:08:57;;;;;;;10.23;4.93;;;;;;;-146.27;66.77;81584.75;5068931;28;20040;-71
2023/07/16 08:11:23;;;;;;;11.93;4.63;;;;;;;-146.27;66.53;81502.41;5069383;28;20454;-71
2023/07/16 08:13:49;;;;;;;9.70;4.72;;;;;;;-146.27;66.72;81530.53;5069825;28;20025;-70
2023/07/16 08:16:14;;;;;;;13.93;4.78;;;;;;;-146.27;66.18;81532.53;5068268;28;20100;-70
2023/07/16 08:18:40;;;;;;;14.48;4.00;;;;;;;-146.27;66.33;81576.72;5073085;28;20075;-71
2023/07/16 08:21:05;;;;;;;11.15;4.15;;;;;;;-146.27;66.78;81610.88;5073732;28;20476;-71
2023/07/16 08:23:31;;;;;;;11.40;4.70;;;;;;;-146.27;66.94;81685.19;5073606;28;20465;-71
2023/07/16 08:25:57;;;;;;;11.88;4.05;;;;;;;-146.27;67.45;81733.38;5073377;28;20063;-71
2023/07/16 08:28:22;;;;;;;10.40;4.30;;;;;;;-146.27;67.30;81705.28;5072954;28;20487;-71
2023/07/16 08:30:48;;;;;;;8.57;3.92;;;;;;;-146.27;66.65;81687.19;5073462;28;20024;-71
2023/07/16 08:33:14;;;;;;;10.77;4.78;;;;;;;-146.27;66.97;81687.19;5073215;28;20053;-71
2023/07/16 08:35:41;;;;;;;13.13;4.47;;;;;;;-146.27;66.39;81632.97;5072017;28;20493;-71
2023/07/16 08:38:09;;;;;;;9.68;4.20;;;;;;;-146.27;67.17;81669.13;5073440;28;20037;-71
2023/07/16 08:40:39;;;;;;;12.35;4.68;;;;;;;-146.27;66.51;81592.78;5073206;28;20488;-71
2023/07/16 08:43:06;;;;;;;12.05;4.65;;;;;;;-146.27;66.39;81606.84;5072917;28;20078;-72
2023/07/16 08:45:39;;;;;;;12.38;3.80;;;;;;;-146.27;66.16;81636.97;5073280;28;20035;-71
2023/07/16 08:48:05;;;;;;;13.00;4.65;;;;;;;-146.27;65.80;81634.97;5073117;28;20036;-71
2023/07/16 08:50:33;;;;;;;11.77;3.70;;;;;;;-146.27;65.45;81588.78;5073048;28;20052;-70
2023/07/16 08:53:00;;;;;;;12.95;4.20;;;;;;;-146.27;66.06;81604.84;5072674;28;20028;-70
2023/07/16 08:55:25;;;;;;;12.82;5.03;;;;;;;-146.27;66.37;81596.81;5072720;28;20035;-71
2023/07/16 08:57:51;;;;;;;8.80;4.03;;;;;;;-146.27;66.66;81653.06;5073049;28;20024;-71
2023/07/16 09:00:18;;;;;;;12.07;4.75;;;;;;;-146.27;67.18;81636.97;5072526;28;20035;-70
2023/07/16 09:02:43;;;;;;;14.13;4.85;;;;;;;-146.27;66.56;81552.63;5072766;28;20028;-70
2023/07/16 09:05:09;;;;;;;10.68;4.93;;;;;;;-146.27;66.26;81516.47;5070710;28;20411;-71
2023/07/16 09:07:37;;;;;;;17.05;5.28;;;;;;;-146.27;65.74;81554.63;5072781;28;20030;-70
2023/07/16 09:10:03;;;;;;;13.85;5.00;;;;;;;-146.27;65.48;81504.44;5071141;28;20060;-71
2023/07/16 09:12:29;;;;;;;16.55;5.03;;;;;;;-146.27;65.49;81532.53;5071724;28;20087;-71
2023/07/16 09:14:55;;;;;;;12.90;4.47;;;;;;;-146.27;65.71;81528.53;5072511;28;20020;-71
2023/07/16 09:17:24;;;;;;;13.07;5.28;;;;;;;-146.27;65.20;81538.56;5072489;28;20103;-71
2023/07/16 09:19:51;;;;;;;11.93;4.47;;;;;;;-146.27;65.50;81572.72;5072489;28;20055;-70
2023/07/16 09:22:18;;;;;;;13.07;4.47;;;;;;;-146.27;65.31;81584.75;5071130;28;20047;-72
2023/07/16 09:24:47;;;;;;;14.65;4.18;;;;;;;-146.27;65.42;81536.56;5072441;28;20020;-72
2023/07/16 09:27:13;;;;;;;9.57;3.83;;;;;;;-146.27;64.96;81524.50;5072102;28;20428;-72
2023/07/16 09:29:39;;;;;;;9.75;3.65;;;;;;;-146.27;65.06;81538.56;5071586;28;20025;-72
2023/07/16 09:32:05;;;;;;;10.38;4.05;;;;;;;-146.27;64.28;81498.41;5072500;28;20091;-70
2023/07/16 09:34:31;;;;;;;13.13;4.25;;;;;;;-146.27;64.28;81464.25;5071699;28;20051;-67
2023/07/16 09:36:57;;;;;;;10.75;3.85;;;;;;;-146.27;63.84;81478.31;5069300;28;20119;-67
2023/07/16 09:39:25;;;;;;;15.05;4.05;;;;;;;-146.27;64.18;81500.41;5057798;28;20086;-66
2023/07/16 09:41:50;;;;;;;11.52;4.22;;;;;;;-146.27;63.95;81480.31;5071715;28;20029;-67
2023/07/16 09:44:17;;;;;;;10.00;3.13;;;;;;;-146.27;63.78;81534.56;5072101;28;20394;-67
2023/07/16 09:46:43;;;;;;;8.07;3.15;;;;;;;-146.27;64.73;81518.50;5072009;28;20556;-67
2023/07/16 09:49:09;;;;;;;11.63;3.90;;;;;;;-146.27;64.98;81522.50;5071109;28;20044;-67
2023/07/16 09:51:36;;;;;;;12.95;3.72;;;;;;;-146.27;64.57;81458.22;5071642;28;20072;-66
2023/07/16 09:54:02;;;;;;;12.07;3.35;;;;;;;-146.27;63.56;81444.19;5071878;28;20078;-67
2023/07/16 09:56:36;;;;;;;11.15;3.35;;;;;;;-146.27;63.03;81301.59;5071555;28;20475;-67
2023/07/16 09:59:05;;;;;;;11.55;3.33;;;;;;;-146.27;61.48;81239.34;5071395;28;20044;-67
2023/07/16 10:01:31;;;;;;;9.02;3.60;;;;;;;-146.27;59.81;81233.31;5071705;28;20029;-67
2023/07/16 10:03:56;;;;;;;9.95;3.65;;;;;;;-146.27;59.18;81217.25;5070890;28;20391;-66
2023/07/16 10:06:22;;;;;;;9.52;4.25;;;;;;;-146.27;59.66;81299.59;5071353;28;20027;-67
2023/07/16 10:08:51;;;;;;;9.65;3.47;;;;;;;-146.27;59.60;81263.44;5071470;28;20036;-66
2023/07/16 10:11:18;;;;;;;9.65;4.05;;;;;;;-146.27;60.83;81323.69;5071268;28;20098;-67
2023/07/16 10:13:48;;;;;;;10.95;4.05;;;;;;;-146.27;61.15;81283.50;5071604;28;20024;-66
2023/07/16 10:16:22;;;;;;;9.35;3.70;;;;;;;-146.27;59.08;81269.47;5071681;28;20044;-67
2023/07/16 10:18:54;;;;;;;6.32;2.17;;;;;;;-146.27;53.68;81257.41;5071339;28;20036;-67
2023/07/16 10:21:24;;;;;;;12.95;2.00;;;;;;;-146.27;51.91;81241.34;5070436;28;20050;-67
2023/07/16 10:24:01;;;;;;;6.88;2.10;;;;;;;-146.27;51.53;81159.00;5070753;28;20028;-66
2023/07/16 10:26:30;;;;;;;6.38;2.00;;;;;;;-146.27;50.07;81078.69;5071171;28;20047;-67
2023/07/16 10:28:56;;;;;;;6.60;2.40;;;;;;;-146.27;49.54;80934.09;5071030;28;20024;-67
2023/07/16 10:31:23;;;;;;;6.13;2.10;;;;;;;-146.27;48.89;80901.97;5070788;28;20077;-67
2023/07/16 10:34:04;;;;;;;9.38;2.42;;;;;;;-146.27;49.50;80801.56;5070602;28;20028;-69
2023/07/16 10:36:30;;;;;;;7.82;2.58;;;;;;;-146.27;47.57;80769.44;5071021;28;20029;-67
2023/07/16 10:39:03;;;;;;;13.23;2.70;;;;;;;-146.27;47.96;80701.16;5069397;28;20047;-67
2023/07/16 10:41:28;;;;;;;8.10;2.22;;;;;;;-146.27;48.24;80783.50;5070448;28;20055;-67
2023/07/16 10:43:54;;;;;;;6.85;2.30;;;;;;;-146.27;47.92;80853.78;5070805;28;20082;-67
2023/07/16 10:46:20;;;;;;;6.43;2.15;;;;;;;-146.27;47.66;80851.75;5070872;28;20025;-68
2023/07/16 10:48:47;;;;;;;8.45;2.30;;;;;;;-146.27;47.11;80769.44;5070938;28;20464;-67
2023/07/16 10:51:15;;;;;;;5.20;2.10;;;;;;;-146.27;45.45;80777.47;5070798;28;20780;-67
2023/07/16 10:53:42;;;;;;;8.32;2.10;;;;;;;-146.27;44.58;80769.44;5068341;28;20051;-67
2023/07/16 10:56:08;;;;;;;13.07;2.10;;;;;;;-146.27;44.22;80799.56;5058605;28;20489;-67
2023/07/16 10:58:33;;;;;;;8.48;1.98;;;;;;;-146.27;44.64;80928.06;5064323;28;20028;-67
2023/07/16 11:00:58;;;;;;;12.20;2.03;;;;;;;-146.27;45.73;80950.16;5069213;28;20090;-67
2023/07/16 11:03:24;;;;;;;10.70;2.58;;;;;;;-146.27;46.34;80910.00;5058668;28;20435;-67
2023/07/16 11:05:49;;;;;;;8.38;2.00;;;;;;;-146.27;47.03;80922.03;5070025;28;20032;-67
2023/07/16 11:08:24;;;;;;;11.90;2.47;;;;;;;-146.27;48.52;81050.56;5070192;28;20035;-68